Time;durP1;ratioP1;P1;durP2;ratioP2;P2;SDS_P1;SDS_P2;PMS_P1;PMS_P2;Temp;Humidity;BMP_temperature;BMP_pressure;BME280_temperature;BME280_humidity;BME280_pressure;Samples;Min_cycle;Max_cycle;Signal;HPM_P1;HPM_P2
2022/04/12 00:00:41;;;;;;;;;;;;;;;8.27;34.66;101244.28;4970795;28;19945;-74
2022/04/12 00:03:08;;;;;;;;;;;;;;;7.77;35.38;101247.56;4973504;28;20017;-74
2022/04/12 00:05:36;;;;;;;;;;;;;;;7.41;36.09;101255.00;4973342;28;20282;-74
2022/04/12 00:08:03;;;;;;;;;;;;;;;7.57;35.80;101246.59;4973585;28;19922;-74
2022/04/12 00:10:30;;;;;;;;;;;;;;;7.91;35.05;101251.78;4970402;28;20026;-74
2022/04/12 00:12:57;;;;;;;;;;;;;;;7.80;35.31;101243.81;4973115;28;20022;-74
2022/04/12 00:15:24;;;;;;;;;;;;;;;7.86;35.27;101256.69;4971623;28;19922;-74
2022/04/12 00:20:36;;;;;;;;;;;;;;;8.33;34.66;101249.09;4973472;28;19934;-74
2022/04/12 00:23:03;;;;;;;;;;;;;;;8.81;33.76;101254.66;4973946;28;19922;-74
2022/04/12 00:25:29;;;;;;;;;;;;;;;8.59;33.83;101257.53;4972817;28;19945;-75
2022/04/12 00:27:57;;;;;;;;;;;;;;;8.83;33.60;101251.84;4972132;28;19990;-74
2022/04/12 00:30:24;;;;;;;;;;;;;;;8.42;34.15;101253.66;4973720;28;20004;-74
2022/04/12 00:32:52;;;;;;;;;;;;;;;7.61;35.75;101252.53;4972297;28;19922;-74
2022/04/12 00:35:19;;;;;;;;;;;;;;;7.37;36.47;101250.06;4972804;28;19926;-74
2022/04/12 00:37:46;;;;;;;;;;;;;;;7.33;36.42;101256.63;4972679;28;19980;-74
2022/04/12 00:40:15;;;;;;;;;;;;;;;7.74;36.06;101250.53;4970059;28;19922;-74
2022/04/12 00:42:41;;;;;;;;;;;;;;;7.95;35.64;101255.91;4968176;28;20378;-74
2022/04/12 00:45:08;;;;;;;;;;;;;;;7.43;36.70;101252.25;4973163;28;19957;-74
2022/04/12 00:47:34;;;;;;;;;;;;;;;7.64;36.17;101247.78;4973407;28;19957;-74
2022/04/12 00:50:00;;;;;;;;;;;;;;;7.54;36.19;101254.84;4972509;28;19966;-74
2022/04/12 00:52:28;;;;;;;;;;;;;;;7.62;36.09;101244.38;4971805;28;20373;-74
2022/04/12 00:54:54;;;;;;;;;;;;;;;7.37;36.45;101240.22;5065196;22;19939;-73
2022/04/12 00:57:21;;;;;;;;;;;;;;;7.26;36.69;101245.63;5034106;28;19927;-73
2022/04/12 00:59:48;;;;;;;;;;;;;;;7.78;36.14;101237.75;5034852;28;20008;-74
2022/04/12 01:02:14;;;;;;;;;;;;;;;7.39;36.55;101245.44;5034836;28;20012;-74
2022/04/12 01:04:41;;;;;;;;;;;;;;;7.62;36.29;101247.03;5033710;28;20430;-74
2022/04/12 01:07:35;;;;;;;;;;;;;;;7.95;35.51;101233.66;5036314;28;19961;-74
2022/04/12 01:10:02;;;;;;;;;;;;;;;8.04;35.55;101239.09;5052591;28;20382;-74
2022/04/12 01:12:30;;;;;;;;;;;;;;;7.89;35.88;101243.06;5047713;28;20011;-74
2022/04/12 01:15:10;;;;;;;;;;;;;;;7.81;35.94;101248.16;5066461;28;20376;-74
2022/04/12 01:17:36;;;;;;;;;;;;;;;8.01;35.62;101238.50;5054432;28;19956;-74
2022/04/12 01:20:03;;;;;;;;;;;;;;;7.67;35.81;101243.97;5054270;28;19920;-74
2022/04/12 01:22:30;;;;;;;;;;;;;;;7.53;36.47;101238.94;5053975;28;19963;-74
2022/04/12 01:24:57;;;;;;;;;;;;;;;7.52;36.32;101248.78;5055082;28;20332;-74
2022/04/12 01:27:23;;;;;;;;;;;;;;;7.36;37.06;101243.00;5052186;28;19963;-74
2022/04/12 01:29:52;;;;;;;;;;;;;;;7.36;36.49;101238.56;5054862;28;19921;-74
2022/04/12 01:32:18;;;;;;;;;;;;;;;7.26;36.83;101245.63;5053917;28;20020;-74
2022/04/12 01:34:44;;;;;;;;;;;;;;;7.61;36.48;101242.69;5059989;28;19951;-74
2022/04/12 01:37:11;;;;;;;;;;;;;;;7.88;35.94;101238.69;5053380;28;20004;-74
2022/04/12 01:39:37;;;;;;;;;;;;;;;7.43;36.61;101236.22;5050877;28;19967;-74
2022/04/12 01:42:04;;;;;;;;;;;;;;;7.64;36.23;101245.09;5054447;28;20303;-75
2022/04/12 01:44:30;;;;;;;;;;;;;;;7.72;36.07;101248.97;5054494;28;19920;-74
2022/04/12 01:46:57;;;;;;;;;;;;;;;7.79;35.96;101247.47;5052326;28;20031;-74
2022/04/12 01:49:23;;;;;;;;;;;;;;;8.14;35.33;101245.34;5048663;28;19972;-74
2022/04/12 01:51:50;;;;;;;;;;;;;;;8.20;35.25;101248.47;5052841;28;20215;-74
2022/04/12 01:54:16;;;;;;;;;;;;;;;8.16;35.18;101242.56;5054529;28;20419;-74
2022/04/12 01:56:42;;;;;;;;;;;;;;;8.26;35.35;101242.56;5041922;28;19921;-74
2022/04/12 01:59:09;;;;;;;;;;;;;;;8.28;35.23;101245.97;5016425;28;20009;-74
2022/04/12 02:01:35;;;;;;;;;;;;;;;7.96;35.62;101240.72;5013766;28;19960;-74
2022/04/12 02:04:01;;;;;;;;;;;;;;;7.31;36.89;101242.56;5013337;28;19927;-74
2022/04/12 02:06:28;;;;;;;;;;;;;;;7.66;36.24;101239.63;5012755;28;20044;-74
2022/04/12 02:08:54;;;;;;;;;;;;;;;7.49;36.40;101230.34;5029159;28;19921;-74
2022/04/12 02:11:20;;;;;;;;;;;;;;;7.33;36.98;101221.94;5033034;28;20016;-74
2022/04/12 02:13:47;;;;;;;;;;;;;;;7.44;36.65;101221.88;5033050;28;19921;-74
2022/04/12 02:16:15;;;;;;;;;;;;;;;7.51;36.86;101220.41;5033034;28;20012;-74
2022/04/12 02:18:41;;;;;;;;;;;;;;;7.17;37.23;101222.34;5033353;28;20110;-74
2022/04/12 02:21:08;;;;;;;;;;;;;;;7.80;36.04;101220.59;5032677;28;19921;-74
2022/04/12 02:23:35;;;;;;;;;;;;;;;7.26;37.12;101216.25;5032579;28;20039;-74
2022/04/12 02:26:01;;;;;;;;;;;;;;;7.00;37.85;101214.88;5028999;28;19960;-74
2022/04/12 02:28:27;;;;;;;;;;;;;;;7.28;37.33;101218.78;5032440;28;20421;-74
2022/04/12 02:30:54;;;;;;;;;;;;;;;7.65;36.35;101217.41;5032173;28;20420;-74
2022/04/12 02:33:20;;;;;;;;;;;;;;;7.78;36.13;101211.91;5031788;28;20262;-74
2022/04/12 02:35:47;;;;;;;;;;;;;;;7.31;36.99;101214.03;5031365;28;20349;-74
2022/04/12 02:38:13;;;;;;;;;;;;;;;7.33;37.24;101219.28;5032946;28;19951;-74
2022/04/12 02:40:40;;;;;;;;;;;;;;;7.58;36.45;101215.41;5032698;28;20004;-74
2022/04/12 02:43:06;;;;;;;;;;;;;;;7.84;36.12;101206.03;5032179;28;19960;-74
2022/04/12 02:45:33;;;;;;;;;;;;;;;7.59;36.77;101211.75;5032481;28;19991;-74
2022/04/12 02:47:59;;;;;;;;;;;;;;;7.35;37.08;101212.81;5028239;28;20384;-74
2022/04/12 02:50:28;;;;;;;;;;;;;;;6.99;37.70;101219.34;5012359;28;19921;-74
2022/04/12 02:52:55;;;;;;;;;;;;;;;6.91;38.07;101219.13;5012351;28;20016;-74
2022/04/12 02:55:21;;;;;;;;;;;;;;;6.95;38.07;101213.44;5015479;28;20036;-74
2022/04/12 02:57:47;;;;;;;;;;;;;;;6.81;38.46;101219.03;5013146;28;20338;-74
2022/04/12 03:00:14;;;;;;;;;;;;;;;6.56;39.14;101221.94;5014488;28;20371;-74
2022/04/12 03:02:40;;;;;;;;;;;;;;;6.47;39.21;101226.22;5012999;28;19944;-74
2022/04/12 03:05:07;;;;;;;;;;;;;;;6.56;38.73;101227.28;5012319;28;19929;-73
2022/04/12 03:07:34;;;;;;;;;;;;;;;6.73;38.69;101234.78;5008382;28;19929;-73
2022/04/12 03:10:00;;;;;;;;;;;;;;;7.12;38.12;101235.22;5011466;28;20270;-73
2022/04/12 03:12:26;;;;;;;;;;;;;;;7.06;37.85;101241.91;5011897;28;19967;-74
2022/04/12 03:14:53;;;;;;;;;;;;;;;6.90;38.49;101241.44;5010531;28;19993;-73
2022/04/12 03:17:20;;;;;;;;;;;;;;;7.53;37.18;101237.13;5012089;28;20340;-74
2022/04/12 03:19:46;;;;;;;;;;;;;;;7.76;36.73;101237.88;5009794;28;19968;-74
2022/04/12 03:22:13;;;;;;;;;;;;;;;7.87;36.49;101234.31;5011883;28;19955;-74
2022/04/12 03:24:39;;;;;;;;;;;;;;;7.97;36.53;101232.56;5012330;28;19963;-74
2022/04/12 03:27:06;;;;;;;;;;;;;;;8.09;36.17;101233.38;5011864;28;20385;-74
2022/04/12 03:29:32;;;;;;;;;;;;;;;7.79;36.88;101240.28;5012568;28;20377;-73
2022/04/12 03:31:59;;;;;;;;;;;;;;;8.06;36.54;101231.78;5011381;28;20293;-73
2022/04/12 03:34:25;;;;;;;;;;;;;;;8.00;36.61;101237.66;5012291;28;20367;-72
2022/04/12 03:36:51;;;;;;;;;;;;;;;7.57;37.45;101243.94;5011217;28;20401;-73
2022/04/12 03:39:18;;;;;;;;;;;;;;;7.64;37.19;101250.44;5016910;28;20308;-74
2022/04/12 03:41:46;;;;;;;;;;;;;;;8.12;36.43;101249.09;5011664;28;19960;-73
2022/04/12 03:44:15;;;;;;;;;;;;;;;8.29;36.23;101250.34;5011693;28;20431;-73
2022/04/12 03:46:45;;;;;;;;;;;;;;;7.80;37.05;101247.31;5011410;28;19925;-74
2022/04/12 03:49:12;;;;;;;;;;;;;;;7.74;36.97;101253.19;5012233;28;20016;-74
2022/04/12 03:51:38;;;;;;;;;;;;;;;7.41;37.58;101246.16;5011177;28;20000;-74
2022/04/12 03:54:04;;;;;;;;;;;;;;;7.75;36.92;101248.69;5011236;28;20794;-74
2022/04/12 03:56:31;;;;;;;;;;;;;;;8.13;36.54;101250.81;5030378;28;19953;-74
2022/04/12 03:58:58;;;;;;;;;;;;;;;8.20;36.41;101249.31;5031093;28;20011;-74
2022/04/12 04:01:25;;;;;;;;;;;;;;;8.16;36.32;101253.25;5030949;28;19968;-74
2022/04/12 04:03:51;;;;;;;;;;;;;;;7.77;37.11;101254.75;5008267;28;19925;-74
2022/04/12 04:06:18;;;;;;;;;;;;;;;8.22;36.18;101258.03;5031140;28;20007;-74
2022/04/12 04:08:44;;;;;;;;;;;;;;;8.26;36.33;101259.50;5032004;28;19960;-74
2022/04/12 04:11:11;;;;;;;;;;;;;;;8.03;36.48;101256.09;5031828;28;19920;-74
2022/04/12 04:13:38;;;;;;;;;;;;;;;8.22;36.61;101254.53;5030745;28;19952;-74
2022/04/12 04:16:05;;;;;;;;;;;;;;;8.25;36.59;101259.59;5030190;28;19925;-74
2022/04/12 04:18:32;;;;;;;;;;;;;;;8.35;36.21;101252.50;5024647;28;19927;-73
2022/04/12 04:20:58;;;;;;;;;;;;;;;8.33;36.20;101252.63;5010474;28;19921;-74
2022/04/12 04:23:25;;;;;;;;;;;;;;;8.13;36.41;101249.00;5010097;28;20381;-73
2022/04/12 04:25:51;;;;;;;;;;;;;;;8.34;35.98;101248.13;5011236;28;20023;-73
2022/04/12 04:28:21;;;;;;;;;;;;;;;8.54;35.78;101249.06;5010559;28;19971;-74
2022/04/12 04:30:50;;;;;;;;;;;;;;;8.74;35.76;101245.47;5009854;28;19928;-73
2022/04/12 04:33:17;;;;;;;;;;;;;;;8.84;35.42;101250.84;5014982;28;20020;-73
2022/04/12 04:35:44;;;;;;;;;;;;;;;8.78;35.55;101252.28;5015475;28;19968;-73
2022/04/12 04:38:11;;;;;;;;;;;;;;;8.80;35.60;101254.78;5015438;28;20019;-73
2022/04/12 04:40:37;;;;;;;;;;;;;;;8.78;35.81;101252.28;5014861;28;20384;-74
2022/04/12 04:43:04;;;;;;;;;;;;;;;8.89;35.49;101248.63;5015071;28;19943;-74
2022/04/12 04:45:31;;;;;;;;;;;;;;;8.74;35.36;101249.97;5014370;28;19957;-74
2022/04/12 04:47:58;;;;;;;;;;;;;;;8.45;35.89;101253.38;5015465;28;19921;-74
2022/04/12 04:50:26;;;;;;;;;;;;;;;8.64;35.74;101254.44;5014459;28;20008;-74
2022/04/12 04:52:52;;;;;;;;;;;;;;;8.82;35.40;101255.53;5015102;28;19949;-74
2022/04/12 04:55:19;;;;;;;;;;;;;;;8.93;35.10;101262.59;5014420;28;20278;-74
2022/04/12 04:57:46;;;;;;;;;;;;;;;8.72;35.40;101250.13;5015390;28;19949;-74
2022/04/12 05:00:15;;;;;;;;;;;;;;;8.19;36.28;101258.28;5014265;28;19921;-74
2022/04/12 05:02:43;;;;;;;;;;;;;;;8.48;35.59;101250.44;5014429;28;19972;-74
2022/04/12 05:05:10;;;;;;;;;;;;;;;8.26;36.34;101255.94;5015165;28;20254;-74
2022/04/12 05:07:40;;;;;;;;;;;;;;;8.16;36.54;101255.03;5020796;28;20511;-73
2022/04/12 05:10:07;;;;;;;;;;;;;;;8.28;36.04;101262.84;5031212;28;19929;-74
2022/04/12 05:12:34;;;;;;;;;;;;;;;7.90;37.03;101260.78;5034164;28;19956;-74
2022/04/12 05:15:00;;;;;;;;;;;;;;;8.30;36.15;101265.41;5034997;28;19947;-74
2022/04/12 05:17:27;;;;;;;;;;;;;;;8.76;35.41;101264.91;5033212;28;20132;-74
2022/04/12 05:19:56;;;;;;;;;;;;;;;8.41;35.78;101256.47;5033542;28;19967;-73
2022/04/12 05:22:23;;;;;;;;;;;;;;;8.50;35.48;101271.69;5030610;28;20356;-74
2022/04/12 05:24:49;;;;;;;;;;;;;;;8.81;35.25;101269.84;5033657;28;19971;-73
2022/04/12 05:27:16;;;;;;;;;;;;;;;8.79;34.89;101264.66;5034754;28;19921;-74
2022/04/12 05:29:42;;;;;;;;;;;;;;;8.46;35.32;101271.13;5033081;28;19999;-74
2022/04/12 05:32:09;;;;;;;;;;;;;;;8.83;34.71;101262.56;5032567;28;20441;-73
2022/04/12 05:34:36;;;;;;;;;;;;;;;8.57;34.69;101271.06;5033411;28;20328;-73
2022/04/12 05:37:03;;;;;;;;;;;;;;;8.65;34.99;101266.84;5034653;28;19921;-74
2022/04/12 05:39:30;;;;;;;;;;;;;;;8.89;34.60;101263.84;5022563;28;19964;-74
2022/04/12 05:42:00;;;;;;;;;;;;;;;9.65;33.32;101269.50;5030684;28;19986;-74
2022/04/12 05:44:32;;;;;;;;;;;;;;;9.39;33.49;101272.72;5011938;28;19975;-75
2022/04/12 05:47:02;;;;;;;;;;;;;;;9.72;32.90;101278.66;5019696;28;19968;-74
2022/04/12 05:49:29;;;;;;;;;;;;;;;10.01;32.37;101278.66;5028403;28;20365;-74
2022/04/12 05:51:56;;;;;;;;;;;;;;;10.15;32.10;101283.56;5014838;28;20389;-74
2022/04/12 05:54:23;;;;;;;;;;;;;;;10.21;31.75;101283.00;5015562;28;20377;-74
2022/04/12 05:56:49;;;;;;;;;;;;;;;10.14;31.84;101289.06;5032441;28;19948;-73
2022/04/12 05:59:16;;;;;;;;;;;;;;;10.38;31.34;101280.56;5024670;28;19921;-74
2022/04/12 06:01:42;;;;;;;;;;;;;;;10.70;30.92;101289.09;5030005;28;20014;-75
2022/04/12 06:04:09;;;;;;;;;;;;;;;10.59;30.99;101286.59;5032656;28;19971;-75
2022/04/12 06:06:35;;;;;;;;;;;;;;;10.13;31.31;101287.38;5032514;28;19921;-74
2022/04/12 06:09:03;;;;;;;;;;;;;;;10.28;31.21;101300.19;5026997;28;20368;-74
2022/04/12 06:11:29;;;;;;;;;;;;;;;10.32;31.37;101298.06;5022170;28;20003;-74
2022/04/12 06:13:55;;;;;;;;;;;;;;;9.31;32.88;101307.38;5030052;28;20369;-74
2022/04/12 06:16:22;;;;;;;;;;;;;;;10.51;31.47;101302.56;5012864;28;20020;-74
2022/04/12 06:18:48;;;;;;;;;;;;;;;11.38;29.76;101310.22;5020252;28;19921;-74
2022/04/12 06:21:15;;;;;;;;;;;;;;;10.74;30.55;101308.41;5028223;28;19928;-74
2022/04/12 06:23:43;;;;;;;;;;;;;;;11.28;30.11;101306.75;5011694;28;19925;-75
2022/04/12 06:26:10;;;;;;;;;;;;;;;11.21;29.95;101308.34;5013202;28;19995;-74
2022/04/12 06:28:37;;;;;;;;;;;;;;;11.11;30.24;101307.56;5012400;28;20348;-73
2022/04/12 06:31:03;;;;;;;;;;;;;;;11.66;29.61;101308.38;5018407;28;20044;-74
2022/04/12 06:33:29;;;;;;;;;;;;;;;12.31;28.78;101309.91;5024823;28;19925;-75
2022/04/12 06:35:56;;;;;;;;;;;;;;;12.45;28.39;101312.00;5013452;28;20341;-75
2022/04/12 06:38:26;;;;;;;;;;;;;;;13.19;27.27;101315.97;5016746;28;19921;-75
2022/04/12 06:40:52;;;;;;;;;;;;;;;13.29;26.86;101319.38;5021334;28;20012;-76
2022/04/12 06:43:19;;;;;;;;;;;;;;;12.92;27.29;101318.88;5018381;28;20012;-75
2022/04/12 06:45:45;;;;;;;;;;;;;;;13.44;26.59;101321.44;5010443;28;19921;-76
2022/04/12 06:48:11;;;;;;;;;;;;;;;14.14;26.11;101315.66;5028758;28;19920;-76
2022/04/12 06:50:38;;;;;;;;;;;;;;;14.30;25.58;101315.66;5030443;28;19927;-76
2022/04/12 06:53:04;;;;;;;;;;;;;;;14.96;24.57;101321.78;5031792;28;20554;-75
2022/04/12 06:55:31;;;;;;;;;;;;;;;15.38;23.98;101326.81;5024313;28;19956;-74
2022/04/12 06:57:57;;;;;;;;;;;;;;;15.75;23.38;101327.16;5017419;28;19921;-75
2022/04/12 07:00:25;;;;;;;;;;;;;;;15.53;23.82;101328.75;5025603;28;20340;-75
2022/04/12 07:02:52;;;;;;;;;;;;;;;16.00;23.10;101336.75;5013827;28;20384;-75
2022/04/12 07:05:19;;;;;;;;;;;;;;;16.25;22.96;101326.56;5013448;28;20340;-75
2022/04/12 07:07:46;;;;;;;;;;;;;;;16.09;22.52;101334.81;5030541;28;19944;-74
2022/04/12 07:10:13;;;;;;;;;;;;;;;15.90;22.48;101334.28;5029214;28;20304;-75
2022/04/12 07:12:40;;;;;;;;;;;;;;;15.74;22.45;101337.09;5031615;28;20021;-75
2022/04/12 07:15:07;;;;;;;;;;;;;;;16.72;21.75;101346.28;5018211;28;19960;-75
2022/04/12 07:17:33;;;;;;;;;;;;;;;17.04;21.26;101337.78;5009779;28;20413;-75
2022/04/12 07:20:00;;;;;;;;;;;;;;;16.39;21.46;101341.16;5011938;28;19921;-75
2022/04/12 07:22:26;;;;;;;;;;;;;;;16.80;21.50;101332.66;5011996;28;19951;-75
2022/04/12 07:24:53;;;;;;;;;;;;;;;16.72;20.90;101338.16;5010086;28;20413;-74
2022/04/12 07:27:19;;;;;;;;;;;;;;;17.65;19.80;101326.66;5009122;28;19921;-75
2022/04/12 07:29:45;;;;;;;;;;;;;;;18.20;19.57;101327.00;5011955;28;20336;-75
2022/04/12 07:32:12;;;;;;;;;;;;;;;17.21;20.19;101327.56;5014579;28;20373;-76
2022/04/12 07:34:38;;;;;;;;;;;;;;;16.42;20.73;101328.09;5019531;28;20070;-75
2022/04/12 07:37:04;;;;;;;;;;;;;;;17.11;20.38;101327.88;5019559;28;20006;-74
2022/04/12 07:39:31;;;;;;;;;;;;;;;18.33;19.22;101324.38;5008775;28;20008;-75
2022/04/12 07:41:57;;;;;;;;;;;;;;;18.52;18.82;101329.16;5027102;28;20008;-75
2022/04/12 07:44:24;;;;;;;;;;;;;;;18.17;19.25;101330.97;5029957;28;19964;-74
2022/04/12 07:46:50;;;;;;;;;;;;;;;17.12;20.34;101324.13;5031281;28;19931;-75
2022/04/12 07:49:17;;;;;;;;;;;;;;;18.12;19.51;101318.97;5023589;28;19964;-75
2022/04/12 07:51:43;;;;;;;;;;;;;;;19.06;18.62;101326.75;5008542;28;19921;-75
2022/04/12 07:54:10;;;;;;;;;;;;;;;19.12;18.17;101331.41;5010240;28;20453;-75
2022/04/12 07:56:36;;;;;;;;;;;;;;;19.37;18.26;101329.00;5009159;28;20012;-75
2022/04/12 07:59:03;;;;;;;;;;;;;;;18.41;19.19;101335.13;5009909;28;19971;-75
2022/04/12 08:01:30;;;;;;;;;;;;;;;17.76;19.48;101328.03;5010781;28;19925;-74
2022/04/12 08:03:56;;;;;;;;;;;;;;;18.74;18.69;101323.63;5012289;28;19925;-74
2022/04/12 08:06:22;;;;;;;;;;;;;;;19.07;18.33;101328.44;5016897;28;20026;-75
2022/04/12 08:08:49;;;;;;;;;;;;;;;17.37;20.13;101340.09;5030528;28;20412;-74
2022/04/12 08:11:15;;;;;;;;;;;;;;;15.77;22.02;101336.75;5030207;28;20365;-76
2022/04/12 08:13:42;;;;;;;;;;;;;;;14.87;23.39;101331.75;5029396;28;19933;-76
2022/04/12 08:16:09;;;;;;;;;;;;;;;16.70;21.21;101324.78;5026288;28;19921;-74
2022/04/12 08:18:40;;;;;;;;;;;;;;;18.02;20.02;101325.56;5025926;28;20365;-75
2022/04/12 08:21:06;;;;;;;;;;;;;;;18.40;19.15;101328.00;5014510;28;19929;-74
2022/04/12 08:23:33;;;;;;;;;;;;;;;18.82;18.91;101322.63;5027244;28;20380;-76
2022/04/12 08:26:00;;;;;;;;;;;;;;;17.93;19.30;101321.31;5028110;28;20007;-75
2022/04/12 08:28:26;;;;;;;;;;;;;;;17.23;20.31;101317.38;5020364;28;19965;-74
2022/04/12 08:30:52;;;;;;;;;;;;;;;17.75;19.83;101326.31;5010897;28;20358;-74
2022/04/12 08:33:19;;;;;;;;;;;;;;;18.16;19.14;101318.41;5011278;28;19933;-75
2022/04/12 08:35:45;;;;;;;;;;;;;;;17.60;19.40;101313.66;5010831;28;19949;-75
2022/04/12 08:38:12;;;;;;;;;;;;;;;18.09;19.19;101323.75;5015844;28;20408;-75
2022/04/12 08:40:40;;;;;;;;;;;;;;;16.75;20.25;101325.09;5019271;28;20346;-73
2022/04/12 08:43:07;;;;;;;;;;;;;;;16.57;20.48;101327.28;5021536;28;19921;-74
2022/04/12 08:45:35;;;;;;;;;;;;;;;16.09;20.97;101327.56;5030274;28;19979;-75
2022/04/12 08:48:02;;;;;;;;;;;;;;;16.76;20.69;101336.75;5025009;28;20369;-75
2022/04/12 08:50:28;;;;;;;;;;;;;;;17.01;20.10;101332.72;5012411;28;19921;-74
2022/04/12 08:52:55;;;;;;;;;;;;;;;16.81;20.18;101334.31;5029052;28;19921;-73
2022/04/12 08:55:21;;;;;;;;;;;;;;;16.96;19.75;101327.03;5030914;28;20021;-74
2022/04/12 08:57:48;;;;;;;;;;;;;;;16.01;20.68;101329.47;5030788;28;20339;-75
2022/04/12 09:00:15;;;;;;;;;;;;;;;17.04;19.73;101321.50;5032230;28;20345;-75
2022/04/12 09:02:41;;;;;;;;;;;;;;;16.26;20.49;101321.97;5022837;28;19921;-75
2022/04/12 09:05:08;;;;;;;;;;;;;;;17.52;19.45;101315.66;5014361;28;20004;-75
2022/04/12 09:07:43;;;;;;;;;;;;;;;17.17;19.91;101312.72;5036350;28;19959;-75
2022/04/12 09:10:10;;;;;;;;;;;;;;;16.81;20.00;101318.91;5021133;28;19968;-75
2022/04/12 09:12:36;;;;;;;;;;;;;;;16.68;19.85;101305.19;5014868;28;20013;-75
2022/04/12 09:15:09;;;;;;;;;;;;;;;16.28;19.66;101288.28;5030114;28;19921;-75
2022/04/12 09:17:36;;;;;;;;;;;;;;;15.64;20.36;101306.72;5019635;28;19925;-76
2022/04/12 09:20:04;;;;;;;;;;;;;;;16.17;20.15;101308.53;5014560;28;19952;-75
2022/04/12 09:22:31;;;;;;;;;;;;;;;17.20;19.71;101301.50;5014962;28;19921;-75
2022/04/12 09:24:59;;;;;;;;;;;;;;;16.92;19.48;101306.78;5025454;28;19929;-76
2022/04/12 09:27:27;;;;;;;;;;;;;;;17.05;19.18;101306.91;5029948;28;19925;-76
2022/04/12 09:29:55;;;;;;;;;;;;;;;17.32;18.88;101308.09;5014743;28;19972;-75
2022/04/12 09:32:23;;;;;;;;;;;;;;;17.32;18.91;101307.25;5015600;28;20273;-75
2022/04/12 09:34:54;;;;;;;;;;;;;;;18.26;18.17;101304.50;5015955;28;19927;-75
2022/04/12 09:37:20;;;;;;;;;;;;;;;17.44;19.08;101303.06;5015187;28;19974;-75
2022/04/12 09:39:52;;;;;;;;;;;;;;;17.56;19.02;101303.41;5017129;28;20271;-75
2022/04/12 09:42:18;;;;;;;;;;;;;;;18.11;18.50;101301.84;5033980;28;19979;-75
2022/04/12 09:45:00;;;;;;;;;;;;;;;18.07;18.49;101308.69;5033642;28;19960;-75
2022/04/12 09:47:27;;;;;;;;;;;;;;;17.89;18.85;101298.31;5034919;28;20351;-76
2022/04/12 09:49:53;;;;;;;;;;;;;;;19.11;17.78;101291.66;5034375;28;19975;-76
2022/04/12 09:52:20;;;;;;;;;;;;;;;18.13;18.25;101294.31;5033561;28;19964;-76
2022/04/12 09:54:46;;;;;;;;;;;;;;;16.39;20.21;101303.25;5027341;28;19927;-76
2022/04/12 09:57:16;;;;;;;;;;;;;;;16.86;19.97;101291.25;5021626;28;19926;-76
2022/04/12 09:59:46;;;;;;;;;;;;;;;17.25;19.51;101284.66;5014566;28;19961;-75
2022/04/12 10:02:14;;;;;;;;;;;;;;;16.83;19.67;101278.91;5020562;28;19957;-75
2022/04/12 10:04:42;;;;;;;;;;;;;;;17.75;19.06;101280.19;5031296;28;19956;-75
2022/04/12 10:07:13;;;;;;;;;;;;;;;18.54;18.52;101280.84;5014348;28;19971;-76
2022/04/12 10:09:42;;;;;;;;;;;;;;;17.81;18.37;101261.25;5019875;28;20305;-75
2022/04/12 10:12:09;;;;;;;;;;;;;;;18.48;17.94;101272.66;5028937;28;19920;-75
2022/04/12 10:14:35;;;;;;;;;;;;;;;19.30;17.43;101277.28;5035074;28;19967;-75
2022/04/12 10:17:09;;;;;;;;;;;;;;;18.83;17.67;101265.34;5028023;28;19920;-75
2022/04/12 10:19:35;;;;;;;;;;;;;;;18.81;17.55;101269.31;5034590;28;19961;-75
2022/04/12 10:22:04;;;;;;;;;;;;;;;18.74;17.59;101275.53;5034011;28;19921;-75
2022/04/12 10:24:39;;;;;;;;;;;;;;;19.54;17.25;101269.59;5024091;28;19960;-75
2022/04/12 10:27:06;;;;;;;;;;;;;;;18.33;17.86;101256.47;5017340;28;20009;-76
2022/04/12 10:29:33;;;;;;;;;;;;;;;19.15;17.59;101263.00;5033821;28;19921;-76
2022/04/12 10:32:01;;;;;;;;;;;;;;;18.15;18.23;101261.59;5025566;28;19926;-76
2022/04/12 10:35:00;;;;;;;;;;;;;;;18.57;18.07;101260.59;5014045;28;20325;-75
2022/04/12 10:37:27;;;;;;;;;;;;;;;19.04;17.32;101259.00;5007035;28;19928;-75
2022/04/12 10:40:15;;;;;;;;;;;;;;;18.93;17.65;101259.56;5025850;28;19971;-75
2022/04/12 10:42:56;;;;;;;;;;;;;;;19.25;17.51;101252.59;5033196;28;19921;-75
2022/04/12 10:45:49;;;;;;;;;;;;;;;18.05;18.47;101253.75;5033624;28;19961;-75
2022/04/12 10:48:21;;;;;;;;;;;;;;;18.69;18.01;101248.16;5007642;28;20012;-75
2022/04/12 10:50:52;;;;;;;;;;;;;;;19.10;17.85;101258.16;5012792;28;19921;-75
2022/04/12 10:53:36;;;;;;;;;;;;;;;18.92;17.54;101256.00;5012806;28;19967;-76
2022/04/12 10:56:10;;;;;;;;;;;;;;;19.01;17.52;101246.63;5014290;28;19921;-76
2022/04/12 10:58:37;;;;;;;;;;;;;;;18.27;18.57;101249.13;5028144;28;19988;-76
2022/04/12 11:01:08;;;;;;;;;;;;;;;18.67;18.45;101252.09;5032903;28;19971;-75
2022/04/12 11:03:41;;;;;;;;;;;;;;;18.77;18.25;101237.09;5033681;28;19921;-76
2022/04/12 11:06:22;;;;;;;;;;;;;;;17.77;19.40;101234.72;5024158;28;19937;-75
2022/04/12 11:08:50;;;;;;;;;;;;;;;17.99;18.95;101246.38;5013766;28;19979;-75
2022/04/12 11:11:21;;;;;;;;;;;;;;;19.06;17.89;101239.75;5022121;28;19921;-75
2022/04/12 11:13:49;;;;;;;;;;;;;;;18.36;18.99;101231.63;5023738;28;19944;-76
2022/04/12 11:16:20;;;;;;;;;;;;;;;18.51;19.09;101234.22;5007913;28;20456;-76
2022/04/12 11:19:16;;;;;;;;;;;;;;;19.16;18.49;101229.31;5011036;28;19924;-76
2022/04/12 11:21:48;;;;;;;;;;;;;;;17.65;19.52;101222.69;5037310;28;19951;-76
2022/04/12 11:24:15;;;;;;;;;;;;;;;18.28;19.50;101232.66;5032384;28;19920;-76
2022/04/12 11:27:00;;;;;;;;;;;;;;;18.01;19.83;101226.16;5014798;28;20338;-76
2022/04/12 11:29:31;;;;;;;;;;;;;;;19.05;18.75;101229.91;5012150;28;19992;-76
2022/04/12 11:31:57;;;;;;;;;;;;;;;18.65;18.65;101216.94;5005091;28;19964;-76
2022/04/12 11:34:27;;;;;;;;;;;;;;;18.84;18.30;101209.09;5025832;28;19922;-76
2022/04/12 11:36:55;;;;;;;;;;;;;;;18.33;18.58;101206.75;5010232;28;20281;-76
2022/04/12 11:39:23;;;;;;;;;;;;;;;18.48;18.53;101205.59;5012221;28;19921;-76
2022/04/12 11:41:57;;;;;;;;;;;;;;;20.10;17.02;101214.78;5009305;28;19928;-76
2022/04/12 11:44:24;;;;;;;;;;;;;;;18.41;17.56;101196.59;5032368;28;19975;-76
2022/04/12 11:47:06;;;;;;;;;;;;;;;19.15;17.30;101205.91;5032194;28;19921;-76
2022/04/12 11:49:39;;;;;;;;;;;;;;;20.44;16.25;101200.91;5031805;28;20388;-76
2022/04/12 11:52:14;;;;;;;;;;;;;;;19.07;17.59;101206.06;5033387;28;19921;-76
2022/04/12 11:58:23;;;;;;;;;;;;;;;20.16;16.87;101213.94;4968037;28;19941;-76
2022/04/12 12:01:08;;;;;;;;;;;;;;;18.47;17.69;101206.63;4982081;28;19964;-76
2022/04/12 12:03:35;;;;;;;;;;;;;;;19.23;17.54;101214.69;4990182;28;19936;-76
2022/04/12 12:06:06;;;;;;;;;;;;;;;17.41;18.68;101219.38;4990641;28;19934;-76
2022/04/12 12:08:35;;;;;;;;;;;;;;;18.03;18.00;101217.78;4989609;28;20422;-75
2022/04/12 12:11:11;;;;;;;;;;;;;;;19.47;16.95;101213.28;4986342;28;19944;-77
2022/04/12 12:13:39;;;;;;;;;;;;;;;17.77;17.96;101202.16;4988765;28;19964;-76
2022/04/12 12:16:15;;;;;;;;;;;;;;;17.73;18.17;101204.41;4961909;28;19926;-76
2022/04/12 12:18:43;;;;;;;;;;;;;;;18.13;18.01;101199.28;4978782;28;19957;-76
2022/04/12 12:21:15;;;;;;;;;;;;;;;18.29;17.86;101192.75;4981907;28;19928;-76
2022/04/12 12:23:44;;;;;;;;;;;;;;;17.10;18.97;101177.09;4991170;28;19944;-76
2022/04/12 12:26:31;;;;;;;;;;;;;;;17.32;18.46;101185.22;4990142;28;19922;-77
2022/04/12 12:29:00;;;;;;;;;;;;;;;17.73;18.14;101190.00;4972514;28;20362;-76
2022/04/12 12:31:26;;;;;;;;;;;;;;;18.00;18.47;101186.47;4970500;28;20231;-76
2022/04/12 12:33:53;;;;;;;;;;;;;;;17.42;19.26;101187.66;4979585;28;19921;-77
2022/04/12 12:36:20;;;;;;;;;;;;;;;17.10;19.62;101179.81;5011566;28;19925;-75
2022/04/12 12:38:47;;;;;;;;;;;;;;;18.58;17.90;101171.78;5011386;28;19929;-76
2022/04/12 12:41:24;;;;;;;;;;;;;;;18.17;18.23;101181.59;5012626;28;20332;-76
2022/04/12 12:43:54;;;;;;;;;;;;;;;17.45;18.40;101171.81;5012806;28;19921;-76
2022/04/12 12:46:23;;;;;;;;;;;;;;;18.43;17.79;101172.75;5030574;28;19968;-76
2022/04/12 12:49:04;;;;;;;;;;;;;;;19.45;16.75;101158.22;5031637;28;19967;-76
2022/04/12 12:51:31;;;;;;;;;;;;;;;17.86;17.92;101171.13;5155546;22;19920;-76